Terminal Aerodrome Forecast
Issued by NWS

Home | Current Version | Previous Version | Text Only | Print | Product List | Glossary On
Versions: 1 2 3 4 5 6 7 8 9 10 11 12 13 14 15 16 17 18 19 20
000
FTUS41 KCLE 241700 CCA
TAFFDY
TAF COR
KFDY 241734Z 2418/2518 10012G18KT P6SM SCT100 BKN250
     FM250600 10009KT P6SM BKN080
     FM250800 10007KT P6SM BKN045 OVC080
      TEMPO 2508/2510 5SM -RA BR OVC045
     FM251000 09006KT 5SM -RA SCT008 OVC025
     FM251300 30008KT 3SM -RA BR OVC008=

USA.gov is the U.S. government's official web portal to all federal, state and local government web resources and services.